createdAt,value
2022-12-17T00:01:55.037Z,100634.00
2022-12-17T00:04:40.667Z,100628.00
2022-12-17T00:07:26.131Z,100631.00
2022-12-17T00:10:11.798Z,100630.00
2022-12-17T00:12:58.612Z,100628.00
2022-12-17T00:15:44.317Z,100636.00
2022-12-17T00:18:30.232Z,100627.00
2022-12-17T00:21:20.097Z,100632.00
2022-12-17T00:24:06.536Z,100625.00
2022-12-17T00:26:52.521Z,100632.00
2022-12-17T00:29:39.484Z,100645.00
2022-12-17T00:32:25.350Z,100642.00
2022-12-17T00:35:11.198Z,100637.00
2022-12-17T00:37:56.869Z,100646.00
2022-12-17T00:40:42.534Z,100647.00
2022-12-17T00:43:29.658Z,100645.00
2022-12-17T00:46:17.013Z,100654.00
2022-12-17T00:49:03.207Z,100655.00
2022-12-17T00:51:48.938Z,100667.00
2022-12-17T00:54:34.229Z,100659.00
2022-12-17T00:57:20.291Z,100671.00
2022-12-17T01:00:05.538Z,100673.00
2022-12-17T01:02:52.745Z,100687.00
2022-12-17T01:05:39.271Z,100671.00
2022-12-17T01:08:31.129Z,100681.00
2022-12-17T01:11:19.986Z,100683.00
2022-12-17T01:14:05.439Z,100685.00
2022-12-17T01:16:51.236Z,100687.00
2022-12-17T01:19:38.076Z,100687.00
2022-12-17T01:22:32.501Z,100694.00
2022-12-17T01:25:17.761Z,100699.00
2022-12-17T01:28:07.697Z,100703.00
2022-12-17T01:30:55.716Z,100709.00
2022-12-17T01:33:40.988Z,100713.00
2022-12-17T01:36:27.680Z,100699.00
2022-12-17T01:39:13.114Z,100699.00
2022-12-17T01:41:58.747Z,100701.00
2022-12-17T01:45:07.184Z,100705.00
2022-12-17T01:47:57.913Z,100709.00
2022-12-17T01:50:47.221Z,100715.00
2022-12-17T01:53:36.715Z,100709.00
2022-12-17T01:56:24.544Z,100710.00
2022-12-17T01:59:10.188Z,100714.00
2022-12-17T02:01:56.106Z,100716.00
2022-12-17T02:04:42.348Z,100717.00
2022-12-17T02:07:46.756Z,100724.00
2022-12-17T02:10:41.840Z,100729.00
2022-12-17T02:13:33.956Z,100726.00
2022-12-17T02:16:26.871Z,100728.00
2022-12-17T02:19:19.101Z,100725.00
2022-12-17T02:22:09.591Z,100729.00
2022-12-17T02:25:02.959Z,100732.00
2022-12-17T02:27:50.464Z,100735.00
2022-12-17T02:30:36.367Z,100738.00
2022-12-17T02:33:23.145Z,100732.00
2022-12-17T02:36:12.310Z,100727.00
2022-12-17T02:38:58.072Z,100718.00
2022-12-17T02:41:47.079Z,100728.00
2022-12-17T02:44:36.269Z,100733.00
2022-12-17T02:47:24.417Z,100729.00
2022-12-17T02:50:10.324Z,100745.00
2022-12-17T02:53:02.728Z,100747.00
2022-12-17T02:55:48.984Z,100746.00
2022-12-17T02:58:34.331Z,100745.00
2022-12-17T03:01:22.011Z,100747.00
2022-12-17T03:04:07.709Z,100741.00
2022-12-17T03:06:52.266Z,100753.00
2022-12-17T03:09:38.284Z,100742.00
2022-12-17T03:12:24.258Z,100746.00
2022-12-17T03:15:09.765Z,100753.00
2022-12-17T03:17:56.068Z,100759.00
2022-12-17T03:20:41.440Z,100767.00
2022-12-17T03:23:37.899Z,100763.00
2022-12-17T03:26:23.868Z,100752.00
2022-12-17T03:29:09.165Z,100757.00
2022-12-17T03:31:55.104Z,100755.00
2022-12-17T03:34:41.409Z,100767.00
2022-12-17T03:37:27.318Z,100764.00
2022-12-17T03:40:13.200Z,100766.00
2022-12-17T03:42:58.787Z,100774.00
2022-12-17T03:45:44.596Z,100768.00
2022-12-17T03:48:32.499Z,100763.00
2022-12-17T03:51:20.118Z,100771.00
2022-12-17T03:54:06.969Z,100788.00
2022-12-17T03:56:53.519Z,100776.00
2022-12-17T03:59:39.128Z,100779.00
2022-12-17T04:02:25.014Z,100783.00
2022-12-17T04:05:16.569Z,100783.00
2022-12-17T04:08:06.295Z,100779.00
2022-12-17T04:10:52.030Z,100780.00
2022-12-17T04:13:40.984Z,100780.00
2022-12-17T04:16:27.440Z,100790.00
2022-12-17T04:19:13.484Z,100791.00
2022-12-17T04:21:59.293Z,100799.00
2022-12-17T04:24:45.296Z,100797.00
2022-12-17T04:27:30.839Z,100801.00
2022-12-17T04:30:16.066Z,100798.00
2022-12-17T04:33:01.577Z,100809.00
2022-12-17T04:35:46.832Z,100803.00
2022-12-17T04:38:32.237Z,100808.00
2022-12-17T04:41:18.661Z,100819.00
2022-12-17T04:44:04.243Z,100821.00
2022-12-17T04:46:49.831Z,100833.00
2022-12-17T04:49:35.720Z,100827.00
2022-12-17T04:52:21.241Z,100833.00
2022-12-17T04:55:07.120Z,100836.00
2022-12-17T04:57:53.596Z,100844.00
2022-12-17T05:00:39.771Z,100837.00
2022-12-17T05:03:28.035Z,100828.00
2022-12-17T05:06:13.833Z,100851.00
2022-12-17T05:08:59.290Z,100844.00
2022-12-17T05:11:44.728Z,100848.00
2022-12-17T05:14:30.741Z,100858.00
2022-12-17T05:17:16.266Z,100856.00
2022-12-17T05:20:01.853Z,100861.00
2022-12-17T05:22:47.526Z,100866.00
2022-12-17T05:25:35.804Z,100876.00
2022-12-17T05:28:21.555Z,100864.00
2022-12-17T05:31:11.821Z,100880.00
2022-12-17T05:33:57.868Z,100878.00
2022-12-17T05:36:43.930Z,100880.00
2022-12-17T05:39:26.058Z,100885.00
2022-12-17T05:42:14.293Z,100890.00
2022-12-17T05:45:00.112Z,100884.00
2022-12-17T05:47:46.721Z,100897.00
2022-12-17T05:50:34.430Z,100894.00
2022-12-17T05:53:20.958Z,100902.00
2022-12-17T05:56:10.238Z,100904.00
2022-12-17T05:58:56.914Z,100904.00
2022-12-17T06:01:42.504Z,100898.00
2022-12-17T06:04:29.114Z,100914.00
2022-12-17T06:07:15.025Z,100906.00
2022-12-17T06:10:00.715Z,100906.00
2022-12-17T06:12:46.811Z,100913.00
2022-12-17T06:15:32.523Z,100914.00
2022-12-17T06:18:18.238Z,100924.00
2022-12-17T06:21:05.757Z,100911.00
2022-12-17T06:23:51.339Z,100917.00
2022-12-17T06:26:37.967Z,100915.00
2022-12-17T06:29:23.541Z,100921.00
2022-12-17T06:32:09.183Z,100941.00
2022-12-17T06:34:54.935Z,100931.00
2022-12-17T06:37:41.584Z,100945.00
2022-12-17T06:40:28.400Z,100948.00
2022-12-17T06:43:14.982Z,100952.00
2022-12-17T06:46:00.875Z,100957.00
2022-12-17T06:48:46.328Z,100953.00
2022-12-17T06:51:32.346Z,100961.00
2022-12-17T06:54:19.151Z,100955.00
2022-12-17T06:57:05.010Z,100956.00
2022-12-17T06:59:50.661Z,100965.00
2022-12-17T07:02:36.712Z,100963.00
2022-12-17T07:05:22.649Z,100968.00
2022-12-17T07:08:15.962Z,100968.00
2022-12-17T07:11:03.174Z,100972.00
2022-12-17T07:13:48.803Z,100979.00
2022-12-17T07:16:34.550Z,100986.00
2022-12-17T07:19:23.823Z,100990.00
2022-12-17T07:22:11.179Z,100999.00
2022-12-17T07:25:11.314Z,101002.00
2022-12-17T07:28:00.398Z,101008.00
2022-12-17T07:30:59.858Z,101012.00
2022-12-17T07:33:45.697Z,101015.00
2022-12-17T07:36:31.563Z,101017.00
2022-12-17T07:39:17.227Z,101021.00
2022-12-17T07:42:03.059Z,101025.00
2022-12-17T07:44:50.053Z,101029.00
2022-12-17T07:47:35.391Z,101024.00
2022-12-17T07:50:21.289Z,101029.00
2022-12-17T07:53:16.441Z,101024.00
2022-12-17T07:56:02.175Z,101041.00
2022-12-17T07:58:47.804Z,101042.00
2022-12-17T08:01:35.035Z,101045.00
2022-12-17T08:04:20.968Z,101038.00
2022-12-17T08:07:11.056Z,101057.00
2022-12-17T08:09:58.041Z,101053.00
2022-12-17T08:12:43.803Z,101060.00
2022-12-17T08:15:29.851Z,101066.00
2022-12-17T08:18:25.898Z,101072.00
2022-12-17T08:21:12.080Z,101062.00
2022-12-17T08:23:58.223Z,101077.00
2022-12-17T08:26:47.902Z,101073.00
2022-12-17T08:29:34.897Z,101078.00
2022-12-17T08:32:20.450Z,101077.00
2022-12-17T08:35:07.374Z,101079.00
2022-12-17T08:37:54.095Z,101086.00
2022-12-17T08:40:40.213Z,101076.00
2022-12-17T08:43:25.757Z,101085.00
2022-12-17T08:46:11.426Z,101085.00
2022-12-17T08:48:57.490Z,101093.00
2022-12-17T08:51:43.667Z,101099.00
2022-12-17T08:54:29.543Z,101101.00
2022-12-17T08:57:27.085Z,101107.00
2022-12-17T09:00:16.627Z,101111.00
2022-12-17T09:03:02.625Z,101108.00
2022-12-17T09:05:48.653Z,101112.00
2022-12-17T09:08:34.868Z,101108.00
2022-12-17T09:11:20.273Z,101117.00
2022-12-17T09:14:05.913Z,101115.00
2022-12-17T09:16:51.642Z,101120.00
2022-12-17T09:19:37.551Z,101126.00
2022-12-17T09:22:22.999Z,101127.00
2022-12-17T09:25:09.150Z,101130.00
2022-12-17T09:27:54.648Z,101128.00
2022-12-17T09:30:39.862Z,101136.00
2022-12-17T09:33:25.501Z,101132.00
2022-12-17T09:36:10.637Z,101140.00
2022-12-17T09:38:55.982Z,101136.00
2022-12-17T09:41:45.566Z,101139.00
2022-12-17T09:44:38.392Z,101147.00
2022-12-17T09:47:33.686Z,101135.00
2022-12-17T09:50:21.302Z,101137.00
2022-12-17T09:53:07.390Z,101136.00
2022-12-17T09:55:58.910Z,101137.00
2022-12-17T09:58:47.607Z,101145.00
2022-12-17T10:01:38.141Z,101151.00
2022-12-17T10:04:30.193Z,101157.00
2022-12-17T10:07:15.581Z,101152.00
2022-12-17T10:10:02.169Z,101166.00
2022-12-17T10:12:47.394Z,101166.00
2022-12-17T10:15:34.525Z,101163.00
2022-12-17T10:18:24.996Z,101171.00
2022-12-17T10:21:13.271Z,101164.00
2022-12-17T10:23:58.641Z,101171.00
2022-12-17T10:26:47.933Z,101172.00
2022-12-17T10:29:36.076Z,101172.00
2022-12-17T10:32:29.864Z,101190.00
2022-12-17T10:35:30.620Z,101189.00
2022-12-17T10:38:18.175Z,101177.00
2022-12-17T10:41:03.431Z,101175.00
2022-12-17T10:43:51.259Z,101190.00
2022-12-17T10:46:46.665Z,101189.00
2022-12-17T10:49:34.887Z,101188.00
2022-12-17T10:52:24.046Z,101183.00
2022-12-17T10:55:19.625Z,101188.00
2022-12-17T10:58:07.391Z,101191.00
2022-12-17T11:01:09.181Z,101179.00
2022-12-17T11:04:06.328Z,101183.00
2022-12-17T11:06:55.721Z,101200.00
2022-12-17T11:09:52.346Z,101192.00
2022-12-17T11:12:52.159Z,101205.00
2022-12-17T11:15:42.020Z,101198.00
2022-12-17T11:18:42.667Z,101202.00
2022-12-17T11:21:47.430Z,101196.00
2022-12-17T11:24:42.058Z,101193.00
2022-12-17T11:27:44.633Z,101204.00
2022-12-17T11:30:31.265Z,101203.00
2022-12-17T11:33:25.956Z,101213.00
2022-12-17T11:36:18.671Z,101203.00
2022-12-17T11:39:13.448Z,101207.00
2022-12-17T11:42:11.473Z,101204.00
2022-12-17T11:45:20.611Z,101211.00
2022-12-17T11:48:12.999Z,101215.00
2022-12-17T11:51:05.326Z,101208.00
2022-12-17T11:54:13.018Z,101217.00
2022-12-17T11:57:03.945Z,101220.00
2022-12-17T11:59:55.912Z,101214.00
2022-12-17T12:03:03.501Z,101210.00
2022-12-17T12:06:00.167Z,101217.00
2022-12-17T12:08:48.263Z,101222.00
2022-12-17T12:11:45.322Z,101225.00
2022-12-17T12:14:44.301Z,101223.00
2022-12-17T12:18:02.503Z,101217.00
2022-12-17T12:21:04.152Z,101229.00
2022-12-17T12:24:00.731Z,101225.00
2022-12-17T12:26:51.974Z,101233.00
2022-12-17T12:29:49.890Z,101228.00
2022-12-17T12:32:41.635Z,101231.00
2022-12-17T12:35:34.323Z,101236.00
2022-12-17T12:38:20.991Z,101239.00
2022-12-17T12:41:15.281Z,101240.00
2022-12-17T12:44:06.701Z,101248.00
2022-12-17T12:46:56.440Z,101251.00
2022-12-17T12:49:44.970Z,101244.00
2022-12-17T12:52:36.908Z,101246.00
2022-12-17T12:59:42.298Z,101265.00
2022-12-17T13:02:48.867Z,101266.00
2022-12-17T13:06:07.763Z,101265.00
2022-12-17T13:12:36.578Z,101260.00
2022-12-17T13:15:50.953Z,101270.00
2022-12-17T13:18:28.866Z,101267.00
2022-12-17T13:21:08.835Z,101277.00
2022-12-17T13:23:38.836Z,101274.00
2022-12-17T13:26:22.279Z,101283.00
2022-12-17T13:29:20.118Z,101277.00
2022-12-17T13:32:08.091Z,101283.00
2022-12-17T13:34:55.239Z,101299.00
2022-12-17T13:37:47.307Z,101299.00
2022-12-17T13:40:31.531Z,101305.00
2022-12-17T13:44:17.369Z,101303.00
2022-12-17T13:46:52.232Z,101303.00
2022-12-17T13:49:27.629Z,101306.00
2022-12-17T13:52:23.696Z,101307.00
2022-12-17T13:54:52.615Z,101310.00
2022-12-17T13:57:24.944Z,101316.00
2022-12-17T13:59:54.048Z,101329.00
2022-12-17T14:02:28.483Z,101329.00
2022-12-17T14:05:04.024Z,101337.00
2022-12-17T14:07:45.967Z,101329.00
2022-12-17T14:10:26.160Z,101335.00
2022-12-17T14:13:11.517Z,101330.00
2022-12-17T14:15:49.593Z,101339.00
2022-12-17T14:18:24.974Z,101346.00
2022-12-17T14:20:58.744Z,101347.00
2022-12-17T14:23:32.754Z,101346.00
2022-12-17T14:26:01.045Z,101347.00
2022-12-17T14:28:35.604Z,101351.00
2022-12-17T14:31:26.770Z,101355.00
2022-12-17T14:34:06.816Z,101364.00
2022-12-17T14:36:41.446Z,101365.00
2022-12-17T14:39:29.622Z,101362.00
2022-12-17T14:42:20.065Z,101361.00
2022-12-17T14:44:53.389Z,101371.00
2022-12-17T14:47:36.041Z,101377.00
2022-12-17T14:50:10.132Z,101379.00
2022-12-17T14:52:46.670Z,101373.00
2022-12-17T14:55:36.325Z,101372.00
2022-12-17T14:58:20.406Z,101386.00
2022-12-17T15:00:56.300Z,101389.00
2022-12-17T15:03:28.002Z,101388.00
2022-12-17T15:05:59.216Z,101395.00
2022-12-17T15:08:35.108Z,101400.00
2022-12-17T15:11:18.608Z,101392.00
2022-12-17T15:13:49.216Z,101410.00
2022-12-17T15:16:24.667Z,101401.00
2022-12-17T15:18:52.591Z,101413.00
2022-12-17T15:21:20.833Z,101413.00
2022-12-17T15:23:51.425Z,101417.00
2022-12-17T15:26:20.991Z,101418.00
2022-12-17T15:28:48.910Z,101412.00
2022-12-17T15:31:25.002Z,101424.00
2022-12-17T15:33:54.271Z,101416.00
2022-12-17T15:36:24.818Z,101415.00
2022-12-17T15:38:52.563Z,101416.00
2022-12-17T15:41:39.112Z,101413.00
2022-12-17T15:44:06.909Z,101423.00
2022-12-17T15:46:35.354Z,101416.00
2022-12-17T15:49:03.567Z,101412.00
2022-12-17T15:51:31.248Z,101421.00
2022-12-17T15:53:59.542Z,101419.00
2022-12-17T15:56:31.473Z,101424.00
2022-12-17T15:58:59.704Z,101432.00
2022-12-17T16:01:27.726Z,101426.00
2022-12-17T16:03:55.772Z,101434.00
2022-12-17T16:06:23.710Z,101439.00
2022-12-17T16:08:51.616Z,101427.00
2022-12-17T16:11:23.785Z,101436.00
2022-12-17T16:14:01.140Z,101436.00
2022-12-17T16:16:31.898Z,101445.00
2022-12-17T16:19:01.751Z,101436.00
2022-12-17T16:21:29.419Z,101435.00
2022-12-17T16:24:05.164Z,101450.00
2022-12-17T16:26:35.639Z,101442.00
2022-12-17T16:29:06.755Z,101447.00
2022-12-17T16:31:41.131Z,101443.00
2022-12-17T16:34:12.317Z,101454.00
2022-12-17T16:36:40.493Z,101455.00
2022-12-17T16:39:14.406Z,101447.00
2022-12-17T16:41:43.660Z,101445.00
2022-12-17T16:44:12.157Z,101451.00
2022-12-17T16:46:46.173Z,101458.00
2022-12-17T16:49:26.075Z,101462.00
2022-12-17T16:52:03.009Z,101463.00
2022-12-17T16:54:42.984Z,101468.00
2022-12-17T16:57:19.260Z,101466.00
2022-12-17T16:59:53.311Z,101461.00
2022-12-17T17:02:28.754Z,101472.00
2022-12-17T17:05:02.038Z,101469.00
2022-12-17T17:07:34.498Z,101473.00
2022-12-17T17:10:08.257Z,101465.00
2022-12-17T17:12:59.024Z,101475.00
2022-12-17T17:16:47.303Z,101471.00
2022-12-17T17:19:48.240Z,101473.00
2022-12-17T17:22:23.720Z,101484.00
2022-12-17T17:24:58.897Z,101482.00
2022-12-17T17:34:00.385Z,101486.00
2022-12-17T17:36:40.778Z,101486.00
2022-12-17T17:39:17.650Z,101497.00
2022-12-17T17:41:45.519Z,101488.00
2022-12-17T17:44:24.774Z,101493.00
2022-12-17T17:47:10.166Z,101501.00
2022-12-17T17:50:12.616Z,101499.00
2022-12-17T17:53:01.568Z,101494.00
2022-12-17T17:55:29.312Z,101495.00
2022-12-17T17:57:57.138Z,101502.00
2022-12-17T18:00:32.091Z,101501.00
2022-12-17T18:03:07.502Z,101506.00
2022-12-17T18:05:41.624Z,101498.00
2022-12-17T18:08:13.362Z,101500.00
2022-12-17T18:10:45.196Z,101502.00
2022-12-17T18:13:31.241Z,101508.00
2022-12-17T18:16:01.941Z,101504.00
2022-12-17T18:18:29.456Z,101505.00
2022-12-17T18:21:04.930Z,101507.00
2022-12-17T18:23:32.579Z,101510.00
2022-12-17T18:26:06.736Z,101524.00
2022-12-17T18:28:34.590Z,101514.00
2022-12-17T18:31:07.971Z,101515.00
2022-12-17T18:33:36.653Z,101520.00
2022-12-17T18:36:11.545Z,101517.00
2022-12-17T18:38:40.029Z,101525.00
2022-12-17T18:41:45.172Z,101532.00
2022-12-17T18:44:13.634Z,101534.00
2022-12-17T18:46:42.481Z,101531.00
2022-12-17T18:49:15.150Z,101536.00
2022-12-17T18:51:53.291Z,101540.00
2022-12-17T18:54:54.869Z,101555.00
2022-12-17T18:57:22.938Z,101561.00
2022-12-17T19:05:45.150Z,101557.00
2022-12-17T19:08:16.920Z,101558.00
2022-12-17T19:10:44.763Z,101568.00
2022-12-17T19:13:18.660Z,101569.00
2022-12-17T19:15:52.126Z,101574.00
2022-12-17T19:25:44.215Z,101578.00
2022-12-17T19:28:29.555Z,101587.00
2022-12-17T19:30:57.532Z,101582.00
2022-12-17T19:33:27.113Z,101589.00
2022-12-17T19:36:42.326Z,101575.00
2022-12-17T19:39:15.192Z,101576.00
2022-12-17T19:41:54.000Z,101578.00
2022-12-17T19:44:41.887Z,101580.00
2022-12-17T19:47:46.771Z,101581.00
2022-12-17T19:54:15.935Z,101594.00
2022-12-17T19:59:58.362Z,101590.00
2022-12-17T20:02:32.732Z,101585.00
2022-12-17T20:05:00.910Z,101584.00
2022-12-17T20:07:29.884Z,101586.00
2022-12-17T20:10:00.711Z,101590.00
2022-12-17T20:12:39.173Z,101587.00
2022-12-17T20:15:10.106Z,101602.00
2022-12-17T20:17:51.600Z,101589.00
2022-12-17T20:20:22.215Z,101603.00
2022-12-17T20:24:07.689Z,101602.00
2022-12-17T20:30:17.321Z,101613.00
2022-12-17T20:40:36.133Z,101622.00
2022-12-17T20:43:07.632Z,101615.00
2022-12-17T20:45:38.245Z,101623.00
2022-12-17T20:48:09.080Z,101629.00
2022-12-17T20:50:51.188Z,101624.00
2022-12-17T20:53:23.113Z,101629.00
2022-12-17T20:59:02.373Z,101626.00
2022-12-17T21:02:02.493Z,101630.00
2022-12-17T21:05:23.078Z,101628.00
2022-12-17T21:11:39.893Z,101647.00
2022-12-17T21:14:08.992Z,101638.00
2022-12-17T21:16:47.527Z,101646.00
2022-12-17T21:19:29.150Z,101649.00
2022-12-17T21:21:56.832Z,101656.00
2022-12-17T21:28:03.965Z,101659.00
2022-12-17T21:30:36.314Z,101651.00
2022-12-17T21:33:08.735Z,101664.00
2022-12-17T21:36:17.334Z,101671.00
2022-12-17T21:38:44.964Z,101677.00
2022-12-17T21:41:36.362Z,101673.00
2022-12-17T21:47:57.098Z,101681.00
2022-12-17T21:50:57.665Z,101667.00
2022-12-17T21:53:31.777Z,101681.00
2022-12-17T21:56:11.673Z,101674.00
2022-12-17T21:58:45.970Z,101680.00
2022-12-17T22:01:26.729Z,101687.00
2022-12-17T22:04:05.599Z,101685.00
2022-12-17T22:10:50.442Z,101681.00
2022-12-17T22:14:25.501Z,101680.00
2022-12-17T22:17:26.121Z,101685.00
2022-12-17T22:20:39.962Z,101686.00
2022-12-17T22:23:20.928Z,101686.00
2022-12-17T22:26:10.950Z,101707.00
2022-12-17T22:28:46.227Z,101706.00
2022-12-17T22:32:17.831Z,101703.00
2022-12-17T22:36:07.831Z,101701.00
2022-12-17T22:40:52.353Z,101698.00
2022-12-17T22:44:55.812Z,101698.00
2022-12-17T22:47:30.818Z,101707.00
2022-12-17T22:50:16.711Z,101703.00
2022-12-17T22:52:55.676Z,101715.00
2022-12-17T22:55:30.832Z,101721.00
2022-12-17T22:58:08.088Z,101715.00
2022-12-17T23:00:43.323Z,101716.00
2022-12-17T23:03:32.222Z,101723.00
2022-12-17T23:24:02.390Z,101721.00
2022-12-17T23:26:38.076Z,101728.00
2022-12-17T23:29:36.750Z,101743.00
2022-12-17T23:32:04.895Z,101744.00
2022-12-17T23:34:53.632Z,101744.00
2022-12-17T23:37:58.981Z,101753.00
2022-12-17T23:40:33.080Z,101741.00
2022-12-17T23:44:12.366Z,101741.00
2022-12-17T23:46:51.620Z,101741.00
2022-12-17T23:52:34.739Z,101738.00
2022-12-17T23:55:02.211Z,101732.00
2022-12-17T23:57:30.683Z,101734.00
2022-12-17T23:59:58.025Z,101734.00
